FDX20G EDDF-KMEM
Flight info
| Callsign | FDX20G |
|---|---|
| Flight time | N/A |
| Altitude | 30000 |
| Route | OBOKA5G/25C OBOKA Z29 TORNU DCT BATAK DCT GALSO Q63 ERING L179 LAM/N0485F320 L179 UGBET Q60 OKSAW DCT BIBPE DCT FELCA DCT FADZU DCT OFSOX DCT SLANY DCT TOBOR/M084F330 NATC ELSIR/N0480F340 N414A ANATI DCT POLTY Q804 KENLU/N0484F360 Q804 DERLO Q907 SVM DCT FWA DCT VHP DCT PXV BLUZZ5 |
| Aircraft | B77L/H-SDE1E2E3FGHIJ2J3J4J5M1RWXY/LB1D1 |
Departure
| Time | 2026-05-06 13:34 |
|---|---|
| Airport | Frankfurt Main Airport (EDDF) |
Arrival
| Time | N/A |
|---|---|
| Airport | Memphis International Airport (KMEM) |
| Time | Latitude | Longitude | Altitude | Speed | Heading |
|---|---|---|---|---|---|
| 2026-05-06 13:01 | 50.03723 | 8.53092 | 355 ft | 0 kts | 340° |
| 2026-05-06 13:17 | 50.03722 | 8.53092 | 355 ft | 2 kts | 340° |
| 2026-05-06 13:17 | 50.03698 | 8.53106 | 357 ft | 4 kts | 340° |
| 2026-05-06 13:17 | 50.03675 | 8.53119 | 356 ft | 2 kts | 338° |
| 2026-05-06 13:17 | 50.03651 | 8.53129 | 356 ft | 4 kts | 3° |
| 2026-05-06 13:18 | 50.03628 | 8.53118 | 355 ft | 4 kts | 43° |
| 2026-05-06 13:18 | 50.03612 | 8.53085 | 355 ft | 4 kts | 66° |
| 2026-05-06 13:18 | 50.03603 | 8.53048 | 355 ft | 4 kts | 71° |
| 2026-05-06 13:18 | 50.03594 | 8.53009 | 355 ft | 4 kts | 69° |
| 2026-05-06 13:19 | 50.03593 | 8.53005 | 355 ft | 0 kts | 69° |
| 2026-05-06 13:23 | 50.03600 | 8.53035 | 355 ft | 7 kts | 69° |
| 2026-05-06 13:23 | 50.03621 | 8.53122 | 355 ft | 9 kts | 69° |
| 2026-05-06 13:24 | 50.03643 | 8.53213 | 356 ft | 9 kts | 70° |
| 2026-05-06 13:24 | 50.03665 | 8.53304 | 355 ft | 9 kts | 70° |
| 2026-05-06 13:24 | 50.03686 | 8.53395 | 356 ft | 9 kts | 70° |
| 2026-05-06 13:24 | 50.03707 | 8.53486 | 350 ft | 9 kts | 75° |
| 2026-05-06 13:25 | 50.03678 | 8.53568 | 350 ft | 12 kts | 157° |
| 2026-05-06 13:25 | 50.03583 | 8.53529 | 352 ft | 17 kts | 206° |
| 2026-05-06 13:25 | 50.03479 | 8.53508 | 352 ft | 12 kts | 128° |
| 2026-05-06 13:25 | 50.03493 | 8.53625 | 353 ft | 11 kts | 69° |
| 2026-05-06 13:26 | 50.03520 | 8.53739 | 349 ft | 11 kts | 70° |
| 2026-05-06 13:26 | 50.03547 | 8.53854 | 352 ft | 11 kts | 70° |
| 2026-05-06 13:26 | 50.03575 | 8.53968 | 353 ft | 11 kts | 70° |
| 2026-05-06 13:26 | 50.03600 | 8.54076 | 354 ft | 10 kts | 69° |
| 2026-05-06 13:27 | 50.03624 | 8.54174 | 354 ft | 10 kts | 69° |
| 2026-05-06 13:27 | 50.03647 | 8.54272 | 353 ft | 10 kts | 69° |
| 2026-05-06 13:27 | 50.03671 | 8.54370 | 355 ft | 10 kts | 69° |
| 2026-05-06 13:27 | 50.03694 | 8.54468 | 353 ft | 10 kts | 70° |
| 2026-05-06 13:28 | 50.03718 | 8.54567 | 357 ft | 10 kts | 70° |
| 2026-05-06 13:28 | 50.03743 | 8.54675 | 358 ft | 14 kts | 70° |
| 2026-05-06 13:28 | 50.03788 | 8.54862 | 356 ft | 21 kts | 69° |
| 2026-05-06 13:28 | 50.03839 | 8.55074 | 358 ft | 21 kts | 70° |
| 2026-05-06 13:29 | 50.03890 | 8.55288 | 361 ft | 21 kts | 69° |
| 2026-05-06 13:29 | 50.03942 | 8.55501 | 361 ft | 21 kts | 69° |
| 2026-05-06 13:29 | 50.03991 | 8.55709 | 358 ft | 21 kts | 70° |
| 2026-05-06 13:29 | 50.04042 | 8.55922 | 359 ft | 21 kts | 69° |
| 2026-05-06 13:30 | 50.04094 | 8.56135 | 361 ft | 21 kts | 69° |
| 2026-05-06 13:30 | 50.04145 | 8.56349 | 364 ft | 21 kts | 70° |
| 2026-05-06 13:30 | 50.04195 | 8.56562 | 365 ft | 21 kts | 70° |
| 2026-05-06 13:30 | 50.04246 | 8.56776 | 370 ft | 21 kts | 69° |
| 2026-05-06 13:31 | 50.04297 | 8.56989 | 369 ft | 21 kts | 69° |
| 2026-05-06 13:31 | 50.04348 | 8.57201 | 368 ft | 21 kts | 69° |
| 2026-05-06 13:31 | 50.04399 | 8.57416 | 371 ft | 21 kts | 70° |
| 2026-05-06 13:31 | 50.04449 | 8.57630 | 372 ft | 21 kts | 70° |
| 2026-05-06 13:32 | 50.04501 | 8.57841 | 375 ft | 21 kts | 69° |
| 2026-05-06 13:32 | 50.04551 | 8.58054 | 368 ft | 21 kts | 70° |
| 2026-05-06 13:32 | 50.04602 | 8.58267 | 378 ft | 21 kts | 70° |
| 2026-05-06 13:32 | 50.04651 | 8.58474 | 376 ft | 18 kts | 72° |
| 2026-05-06 13:33 | 50.04583 | 8.58600 | 376 ft | 18 kts | 165° |
| 2026-05-06 13:33 | 50.04480 | 8.58555 | 378 ft | 19 kts | 243° |
| 2026-05-06 13:33 | 50.04423 | 8.58323 | 376 ft | 58 kts | 249° |
| 2026-05-06 13:33 | 50.04081 | 8.56895 | 370 ft | 151 kts | 249° |
| 2026-05-06 13:34 | 50.03807 | 8.55740 | 360 ft | 189 kts | 250° |
| 2026-05-06 13:34 | 50.03222 | 8.53298 | 756 ft | 205 kts | 249° |
| 2026-05-06 13:34 | 50.02901 | 8.51949 | 1351 ft | 195 kts | 250° |
| 2026-05-06 13:34 | 50.02591 | 8.49898 | 1883 ft | 198 kts | 276° |
| 2026-05-06 13:35 | 50.02794 | 8.47723 | 2103 ft | 212 kts | 277° |
| 2026-05-06 13:35 | 50.02981 | 8.45338 | 2316 ft | 231 kts | 277° |
| 2026-05-06 13:35 | 50.02963 | 8.42801 | 2674 ft | 239 kts | 258° |
| 2026-05-06 13:35 | 50.02578 | 8.40259 | 3147 ft | 245 kts | 258° |
| 2026-05-06 13:36 | 50.02237 | 8.37646 | 3753 ft | 247 kts | 259° |
| 2026-05-06 13:36 | 50.01914 | 8.35017 | 4347 ft | 250 kts | 259° |
| 2026-05-06 13:36 | 50.01588 | 8.32319 | 4844 ft | 258 kts | 259° |
| 2026-05-06 13:36 | 50.01268 | 8.29552 | 5376 ft | 261 kts | 264° |
| 2026-05-06 13:37 | 50.01508 | 8.26772 | 5820 ft | 264 kts | 294° |
| 2026-05-06 13:37 | 50.02307 | 8.24189 | 6315 ft | 267 kts | 295° |
| 2026-05-06 13:37 | 50.03096 | 8.21545 | 6945 ft | 269 kts | 294° |
| 2026-05-06 13:37 | 50.03872 | 8.18890 | 7574 ft | 270 kts | 294° |
| 2026-05-06 13:38 | 50.04641 | 8.16249 | 8152 ft | 273 kts | 294° |
| 2026-05-06 13:38 | 50.05427 | 8.13546 | 8720 ft | 276 kts | 294° |
| 2026-05-06 13:38 | 50.06323 | 8.10903 | 9228 ft | 278 kts | 305° |
| 2026-05-06 13:38 | 50.07507 | 8.08492 | 9765 ft | 281 kts | 309° |